Time;durP1;ratioP1;P1;durP2;ratioP2;P2;SDS_P1;SDS_P2;PMS_P1;PMS_P2;Temp;Humidity;BMP_temperature;BMP_pressure;BME280_temperature;BME280_humidity;BME280_pressure;Samples;Min_cycle;Max_cycle;Signal;HPM_P1;HPM_P2
2023/09/20 00:02:45;;;;;;;0.95;0.40;;;;;;;21.71;60.82;96618.38;10290221;28;20405;-26
2023/09/20 00:07:46;;;;;;;1.48;0.40;;;;;;;21.75;60.42;96628.50;10289289;28;20122;-27
2023/09/20 00:12:46;;;;;;;0.40;0.30;;;;;;;21.76;60.80;96637.84;10283878;28;20034;-26
2023/09/20 00:17:48;;;;;;;0.50;0.45;;;;;;;21.75;60.50;96637.84;10294455;28;20562;-27
2023/09/20 00:22:50;;;;;;;0.60;0.47;;;;;;;21.75;60.38;96632.75;10284101;28;20031;-27
2023/09/20 00:27:50;;;;;;;0.65;0.47;;;;;;;21.73;60.57;96624.28;10284830;28;20034;-27
2023/09/20 00:32:51;;;;;;;0.60;0.50;;;;;;;21.73;60.69;96625.13;10289818;28;20090;-27
2023/09/20 00:37:52;;;;;;;0.50;0.50;;;;;;;21.74;60.69;96619.16;10292282;28;20045;-27
2023/09/20 00:42:57;;;;;;;0.60;0.38;;;;;;;21.73;60.48;96612.38;10297526;28;20301;-26
2023/09/20 00:47:58;;;;;;;6.13;0.63;;;;;;;21.73;60.43;96616.66;10291649;28;20441;-29
2023/09/20 00:53:00;;;;;;;1.27;0.40;;;;;;;21.71;60.55;96606.47;10305103;28;20030;-27
2023/09/20 00:58:04;;;;;;;0.82;0.43;;;;;;;21.72;60.52;96615.78;10291764;28;20552;-28
2023/09/20 01:03:05;;;;;;;0.52;0.38;;;;;;;21.69;60.47;96608.22;10301162;28;20042;-28
2023/09/20 01:08:07;;;;;;;0.50;0.45;;;;;;;21.71;60.37;96603.91;10296037;28;20031;-27
2023/09/20 01:13:09;;;;;;;0.40;0.40;;;;;;;21.69;60.56;96599.69;10296000;28;20493;-27
2023/09/20 01:18:10;;;;;;;0.55;0.40;;;;;;;21.72;60.61;96605.59;10293298;28;20043;-27
2023/09/20 01:23:10;;;;;;;1.30;0.52;;;;;;;21.73;60.63;96606.47;10290544;28;20042;-26
2023/09/20 01:28:11;;;;;;;0.50;0.30;;;;;;;21.73;60.40;96604.72;10289107;28;20043;-27
2023/09/20 01:33:12;;;;;;;0.60;0.50;;;;;;;21.67;60.36;96594.66;10297587;28;20437;-27
2023/09/20 01:38:13;;;;;;;0.90;0.40;;;;;;;21.71;60.54;96606.47;10286452;28;20051;-26
2023/09/20 01:43:13;;;;;;;0.97;0.40;;;;;;;21.71;60.39;96606.47;10283583;28;20034;-27
2023/09/20 01:48:15;;;;;;;0.65;0.40;;;;;;;21.71;60.53;96603.91;10291857;28;20046;-27
2023/09/20 01:53:15;;;;;;;1.20;0.45;;;;;;;21.70;60.44;96603.94;10284846;28;20031;-27
2023/09/20 01:58:16;;;;;;;0.52;0.52;;;;;;;21.70;60.28;96597.16;10288617;28;20497;-26
2023/09/20 02:03:17;;;;;;;0.40;0.30;;;;;;;21.70;60.45;96584.41;10294669;28;20382;-26
2023/09/20 02:08:18;;;;;;;0.50;0.50;;;;;;;21.69;60.40;96585.28;10287725;28;20034;-27
2023/09/20 02:13:19;;;;;;;0.68;0.50;;;;;;;21.70;60.38;96579.31;10290053;28;20031;-29
2023/09/20 02:18:20;;;;;;;0.40;0.35;;;;;;;21.69;60.44;96576.78;10290345;28;20425;-27
2023/09/20 02:23:20;;;;;;;0.32;0.30;;;;;;;21.69;60.62;96579.31;10289269;28;20109;-27
2023/09/20 02:28:22;;;;;;;0.50;0.50;;;;;;;21.69;60.41;96564.88;10292651;28;20126;-27
2023/09/20 02:33:22;;;;;;;0.90;0.43;;;;;;;21.69;60.41;96564.88;10286995;28;20035;-27
2023/09/20 02:38:22;;;;;;;0.50;0.40;;;;;;;21.69;60.25;96569.97;10289476;28;20309;-27
2023/09/20 02:43:23;;;;;;;0.30;0.30;;;;;;;21.64;60.30;96553.88;10283527;28;20034;-27
2023/09/20 02:48:24;;;;;;;0.30;0.30;;;;;;;21.68;60.29;96564.91;10285309;28;20294;-27
2023/09/20 02:53:25;;;;;;;0.60;0.60;;;;;;;21.68;59.98;96560.66;10290075;28;20442;-27
2023/09/20 02:58:25;;;;;;;0.33;0.33;;;;;;;21.69;60.59;96558.94;10292622;28;20034;-26
2023/09/20 03:03:25;;;;;;;0.83;0.30;;;;;;;21.68;60.25;96560.66;10287758;28;20807;-26
2023/09/20 03:08:26;;;;;;;0.32;0.32;;;;;;;21.67;60.40;96551.34;10289300;28;20034;-28
2023/09/20 03:13:27;;;;;;;1.23;0.47;;;;;;;21.66;60.26;96541.97;10289118;28;20052;-27
2023/09/20 03:18:27;;;;;;;0.55;0.38;;;;;;;21.68;60.20;96549.59;10288906;28;20023;-28
2023/09/20 03:23:33;;;;;;;0.60;0.40;;;;;;;21.68;60.35;96542.81;10283876;28;20122;-27
2023/09/20 03:28:33;;;;;;;1.92;0.40;;;;;;;21.67;60.34;96537.75;10286660;28;20030;-26
2023/09/20 03:33:34;;;;;;;0.52;0.52;;;;;;;21.65;60.14;96529.28;10281997;28;20473;-27
2023/09/20 03:38:35;;;;;;;0.40;0.40;;;;;;;21.67;60.12;96533.50;10287348;28;20080;-27
2023/09/20 03:43:37;;;;;;;0.82;0.45;;;;;;;21.67;60.38;96523.31;10278863;28;20049;-28
2023/09/20 03:48:38;;;;;;;0.30;0.30;;;;;;;21.66;60.12;96521.59;10298744;28;20027;-28
2023/09/20 03:53:39;;;;;;;0.32;0.30;;;;;;;21.67;60.20;96518.22;10301969;28;20489;-26
2023/09/20 03:58:39;;;;;;;0.30;0.30;;;;;;;21.66;60.09;96516.50;10285287;28;20031;-27
2023/09/20 04:03:41;;;;;;;0.32;0.30;;;;;;;21.52;60.35;96505.66;10298341;28;20050;-24
2023/09/20 04:08:42;;;;;;;0.60;0.60;;;;;;;21.02;58.67;96509.78;10294971;28;20440;-24
2023/09/20 04:13:43;;;;;;;1.63;0.93;;;;;;;20.91;57.26;96512.50;10293557;28;20077;-24
2023/09/20 04:18:44;;;;;;;1.33;1.00;;;;;;;20.76;56.50;96512.66;10292723;28;20027;-24
2023/09/20 04:23:44;;;;;;;1.90;1.00;;;;;;;20.69;55.96;96512.72;10290753;28;20039;-24
2023/09/20 04:28:48;;;;;;;2.72;1.13;;;;;;;20.50;55.59;96503.63;10292544;28;20039;-25
2023/09/20 04:33:49;;;;;;;1.50;1.13;;;;;;;20.35;55.79;96500.41;10298541;28;20030;-25
2023/09/20 04:38:51;;;;;;;1.52;1.10;;;;;;;20.20;55.39;96487.88;10309781;28;20035;-24
2023/09/20 04:43:51;;;;;;;1.50;1.23;;;;;;;20.01;55.29;96497.34;10302897;28;20563;-25
2023/09/20 04:48:52;;;;;;;4.95;1.20;;;;;;;20.03;55.16;96489.69;10285677;28;20117;-25
2023/09/20 04:53:53;;;;;;;2.55;1.40;;;;;;;19.95;54.92;96492.31;10285926;28;20052;-24
2023/09/20 04:58:56;;;;;;;3.45;1.60;;;;;;;20.08;54.92;96495.63;10290675;28;20460;-25
2023/09/20 05:03:58;;;;;;;2.13;1.25;;;;;;;20.68;55.25;96486.44;10289446;28;20089;-25
2023/09/20 05:08:58;;;;;;;5.07;1.50;;;;;;;20.88;54.91;96487.06;10304111;28;20654;-25
2023/09/20 05:13:59;;;;;;;1.60;1.20;;;;;;;20.99;55.16;96492.84;10287614;28;20054;-25
2023/09/20 05:18:59;;;;;;;1.48;0.90;;;;;;;21.03;55.20;96496.19;10279291;28;20027;-25
2023/09/20 05:24:00;;;;;;;1.45;1.10;;;;;;;21.09;55.47;96494.44;10289540;28;20400;-25
2023/09/20 05:29:00;;;;;;;5.60;1.37;;;;;;;20.84;53.44;96490.50;10289060;28;20041;-26
2023/09/20 05:34:02;;;;;;;6.10;1.53;;;;;;;20.71;54.21;96494.03;10289622;28;20784;-25
2023/09/20 05:39:06;;;;;;;2.60;1.15;;;;;;;20.96;55.04;96499.72;10289935;28;20800;-26
2023/09/20 05:44:06;;;;;;;2.75;1.30;;;;;;;21.02;55.34;96495.38;10288450;28;20046;-25
2023/09/20 05:49:06;;;;;;;2.20;1.13;;;;;;;21.09;55.31;96491.03;10289270;28;20039;-25
2023/09/20 05:54:09;;;;;;;1.87;1.00;;;;;;;21.09;55.58;96476.59;10283842;28;20031;-25
2023/09/20 05:59:10;;;;;;;3.08;1.20;;;;;;;21.13;55.71;96467.22;10291817;28;20030;-25
2023/09/20 06:04:10;;;;;;;2.50;1.10;;;;;;;21.12;55.72;96468.91;10283447;28;20038;-25
2023/09/20 06:09:11;;;;;;;3.35;1.63;;;;;;;21.12;56.03;96461.28;10286142;28;20043;-25
2023/09/20 06:14:11;;;;;;;2.10;1.27;;;;;;;21.15;56.20;96466.31;10289100;28;20034;-25
2023/09/20 06:19:11;;;;;;;1.90;1.57;;;;;;;21.18;56.02;96453.56;10281455;28;20911;-25
2023/09/20 06:24:12;;;;;;;1.20;1.10;;;;;;;21.23;55.89;96448.41;10290196;28;20110;-25
2023/09/20 06:29:13;;;;;;;2.63;1.45;;;;;;;21.24;55.98;96434.78;10287283;28;20027;-25
2023/09/20 06:34:17;;;;;;;1.98;1.38;;;;;;;21.20;56.15;96433.16;10289632;28;20489;-26
2023/09/20 06:39:19;;;;;;;1.48;1.30;;;;;;;21.19;56.08;96439.97;10286470;28;20035;-25
2023/09/20 06:44:19;;;;;;;1.73;1.35;;;;;;;21.20;56.16;96444.19;10287923;28;20034;-26
2023/09/20 06:49:19;;;;;;;3.50;1.00;;;;;;;21.23;56.24;96443.31;10283958;28;20033;-25
2023/09/20 06:54:20;;;;;;;1.40;1.10;;;;;;;21.23;56.12;96433.94;10287553;28;20057;-25
2023/09/20 06:59:20;;;;;;;1.50;0.93;;;;;;;21.27;56.18;96429.66;10284308;28;20285;-26
2023/09/20 07:04:21;;;;;;;3.00;1.23;;;;;;;21.28;55.94;96431.31;10286406;28;20290;-25
2023/09/20 07:09:22;;;;;;;1.25;1.02;;;;;;;21.27;56.25;96430.50;10287430;28;20033;-25
2023/09/20 07:14:25;;;;;;;1.65;1.15;;;;;;;21.32;56.03;96428.69;10284680;28;20030;-25
2023/09/20 07:19:35;;;;;;;2.50;1.00;;;;;;;21.31;56.26;96424.47;10287144;28;20035;-25
2023/09/20 07:24:36;;;;;;;0.80;0.65;;;;;;;21.35;56.00;96427.81;10278039;28;20113;-25
2023/09/20 07:29:37;;;;;;;1.20;1.10;;;;;;;21.35;56.29;96428.69;10286793;28;20038;-25
2023/09/20 07:34:37;;;;;;;1.92;1.10;;;;;;;21.30;56.44;96425.34;10288919;28;20034;-25
2023/09/20 07:39:38;;;;;;;2.37;1.23;;;;;;;21.35;56.31;96420.19;10289052;28;20401;-25
2023/09/20 07:44:38;;;;;;;1.98;1.42;;;;;;;21.33;56.35;96422.78;10287683;28;20311;-25
2023/09/20 07:49:41;;;;;;;2.63;1.17;;;;;;;21.36;56.23;96425.25;10306162;28;20052;-25
2023/09/20 07:54:42;;;;;;;1.23;1.10;;;;;;;21.37;56.27;96421.84;10296293;28;20030;-26
2023/09/20 07:59:42;;;;;;;2.05;1.20;;;;;;;21.36;56.58;96415.06;10306074;28;20027;-25
2023/09/20 08:04:44;;;;;;;2.23;1.20;;;;;;;21.39;56.56;96415.00;10301252;28;20031;-25
2023/09/20 08:09:45;;;;;;;2.22;1.30;;;;;;;21.40;56.84;96408.22;10292112;28;20329;-25
2023/09/20 08:14:45;;;;;;;1.55;1.08;;;;;;;21.39;56.81;96409.91;10301971;28;20050;-26
2023/09/20 08:19:46;;;;;;;1.27;1.00;;;;;;;21.40;56.52;96421.78;10294478;28;20034;-25
2023/09/20 09:02:17;;;;;;;1.33;0.90;;;;;;;21.41;57.15;96392.91;10288725;28;20027;-25
2023/09/20 09:07:18;;;;;;;1.60;1.17;;;;;;;21.38;57.35;96380.22;10295306;28;20198;-26
2023/09/20 09:12:19;;;;;;;1.53;1.20;;;;;;;21.41;57.17;96381.88;10290129;28;20490;-25
2023/09/20 09:17:19;;;;;;;0.82;0.82;;;;;;;21.41;57.45;96381.88;10290714;28;20453;-25
2023/09/20 09:22:23;;;;;;;1.07;0.90;;;;;;;21.43;57.36;96382.69;10296207;28;20042;-25
2023/09/20 09:27:23;;;;;;;1.90;0.93;;;;;;;21.41;57.27;96377.63;10302935;28;20035;-25
2023/09/20 09:32:24;;;;;;;1.40;1.30;;;;;;;21.43;57.45;96378.47;10297893;28;20031;-27
2023/09/20 09:37:25;;;;;;;0.80;0.80;;;;;;;21.42;57.45;96368.28;10289136;28;20153;-25
2023/09/20 09:42:26;;;;;;;0.82;0.80;;;;;;;21.42;57.52;96374.22;10308472;28;20027;-24
2023/09/20 09:47:26;;;;;;;1.00;0.90;;;;;;;21.41;57.55;96367.44;10292496;28;20486;-26
2023/09/20 09:52:28;;;;;;;1.27;1.00;;;;;;;21.43;57.45;96370.81;10292084;28;20038;-27
2023/09/20 09:57:28;;;;;;;1.00;0.80;;;;;;;21.42;57.53;96364.03;10296427;28;20397;-25
2023/09/20 10:02:31;;;;;;;1.60;1.00;;;;;;;21.44;57.63;96361.44;10297644;28;20085;-26
2023/09/20 10:07:35;;;;;;;0.98;0.88;;;;;;;21.43;57.72;96358.09;10291617;28;20081;-26
2023/09/20 10:12:39;;;;;;;1.60;1.13;;;;;;;21.44;57.70;96348.72;10291231;28;20108;-26
2023/09/20 10:17:44;;;;;;;1.70;1.30;;;;;;;21.44;57.68;96352.13;10293522;28;20042;-25
2023/09/20 10:22:48;;;;;;;0.93;0.90;;;;;;;21.46;57.79;96341.91;10296750;28;20041;-25
2023/09/20 10:27:52;;;;;;;1.95;1.23;;;;;;;21.45;57.63;96335.97;10287246;28;20039;-26
2023/09/20 10:32:58;;;;;;;1.38;1.10;;;;;;;21.46;57.85;96324.09;10291854;28;20030;-25
2023/09/20 10:38:08;;;;;;;1.48;1.02;;;;;;;21.50;57.74;96315.50;10288833;28;20038;-25
2023/09/20 10:43:08;;;;;;;1.38;1.13;;;;;;;21.52;57.74;96313.75;10284756;28;20062;-25
2023/09/20 10:48:14;;;;;;;1.47;1.10;;;;;;;21.51;57.93;96310.41;10292612;28;20027;-25
2023/09/20 10:53:22;;;;;;;1.27;0.85;;;;;;;21.53;57.94;96306.09;10300694;28;20058;-25
2023/09/20 10:58:27;;;;;;;1.15;1.05;;;;;;;21.54;57.93;96307.78;10286249;28;20055;-25
2023/09/20 11:03:29;;;;;;;2.42;1.15;;;;;;;21.54;57.87;96295.03;10298565;28;20079;-27
2023/09/20 11:08:29;;;;;;;1.70;1.00;;;;;;;21.44;57.58;96270.63;10290373;28;20038;-25
2023/09/20 11:13:31;;;;;;;1.60;1.07;;;;;;;21.55;57.94;96283.97;10284753;28;20035;-26
2023/09/20 11:18:34;;;;;;;1.80;1.13;;;;;;;21.54;58.11;96269.56;10290378;28;20494;-25
2023/09/20 11:23:34;;;;;;;1.70;1.20;;;;;;;21.56;57.98;96270.38;10299840;28;20038;-25
2023/09/20 11:28:37;;;;;;;3.95;2.03;;;;;;;21.58;57.96;96267.81;10286064;28;20465;-26
2023/09/20 11:33:39;;;;;;;2.47;1.70;;;;;;;21.60;58.16;96271.16;10286280;28;20489;-25
2023/09/20 11:38:39;;;;;;;2.28;1.70;;;;;;;21.59;58.12;96260.13;10283437;28;20489;-25
2023/09/20 11:43:41;;;;;;;3.63;2.33;;;;;;;21.59;58.17;96261.84;10282450;28;20043;-25
2023/09/20 11:48:43;;;;;;;5.68;1.80;;;;;;;21.58;58.21;96255.06;10296539;28;20392;-26
2023/09/20 11:53:44;;;;;;;3.72;3.13;;;;;;;21.59;58.32;96255.03;10289805;28;20114;-25
2023/09/20 11:58:46;;;;;;;5.95;2.15;;;;;;;21.59;58.42;96252.50;10276536;28;20031;-25
2023/09/20 12:03:47;;;;;;;5.07;2.50;;;;;;;21.57;58.36;96238.94;10269634;28;20039;-26
2023/09/20 12:08:47;;;;;;;8.23;2.47;;;;;;;21.58;58.41;96238.09;10286938;28;20047;-26
2023/09/20 12:13:48;;;;;;;4.82;2.83;;;;;;;21.59;58.57;96231.25;10280243;28;20520;-25
2023/09/20 12:18:48;;;;;;;9.98;2.67;;;;;;;21.58;58.85;96220.25;10281509;28;20034;-25
2023/09/20 12:23:51;;;;;;;14.82;2.78;;;;;;;21.62;58.82;96219.31;10288314;28;20038;-25
2023/09/20 12:28:52;;;;;;;9.27;2.60;;;;;;;21.58;58.87;96204.13;10299093;28;20042;-25
2023/09/20 12:33:52;;;;;;;8.55;2.10;;;;;;;21.61;58.35;96207.44;10283150;28;20035;-25
2023/09/20 12:38:53;;;;;;;4.20;2.35;;;;;;;21.59;58.48;96193.91;10294324;28;20030;-25
2023/09/20 12:43:53;;;;;;;6.05;2.75;;;;;;;21.59;58.86;96187.97;10291987;28;20405;-25
2023/09/20 12:48:55;;;;;;;5.70;2.03;;;;;;;21.59;58.87;96170.97;10290859;28;20131;-25
2023/09/20 12:53:55;;;;;;;7.47;2.10;;;;;;;21.61;58.76;96165.81;10295684;28;20336;-26
2023/09/20 12:58:57;;;;;;;10.17;2.43;;;;;;;21.61;58.71;96161.59;10301545;28;20029;-25
2023/09/20 13:03:57;;;;;;;4.80;2.15;;;;;;;21.58;58.65;96151.47;10294125;28;20441;-25
2023/09/20 13:08:57;;;;;;;6.07;1.80;;;;;;;21.60;58.61;96149.72;10290355;28;20069;-25
2023/09/20 13:13:58;;;;;;;8.10;2.03;;;;;;;21.60;58.73;96141.22;10291214;28;20031;-25
2023/09/20 13:18:58;;;;;;;3.73;2.00;;;;;;;21.61;58.78;96135.25;10289184;28;20027;-25
2023/09/20 13:23:59;;;;;;;8.50;1.80;;;;;;;21.62;58.66;96131.84;10290815;28;20034;-25
2023/09/20 13:29:00;;;;;;;8.75;3.50;;;;;;;21.65;58.81;96136.91;10290409;28;20039;-25
2023/09/20 13:34:02;;;;;;;9.27;2.63;;;;;;;21.65;58.68;96127.53;10279326;28;20042;-25
2023/09/20 13:39:02;;;;;;;8.27;3.53;;;;;;;21.65;58.97;96122.44;10287039;28;20054;-25
2023/09/20 13:44:04;;;;;;;4.10;2.57;;;;;;;21.61;59.07;96103.00;10275696;28;20041;-26
2023/09/20 13:49:06;;;;;;;9.82;2.53;;;;;;;21.64;58.89;96102.91;10289766;28;20746;-25
2023/09/20 13:54:06;;;;;;;7.32;4.43;;;;;;;21.64;59.06;96090.19;10285069;28;20043;-25
2023/09/20 13:59:07;;;;;;;9.45;4.88;;;;;;;21.60;59.32;96080.09;10290064;28;20043;-26
2023/09/20 14:04:09;;;;;;;14.07;4.28;;;;;;;21.63;59.92;96070.66;10274025;28;20037;-26
2023/09/20 14:09:13;;;;;;;8.90;3.70;;;;;;;21.62;60.28;96075.78;10302497;28;20627;-25
2023/09/20 14:14:13;;;;;;;9.80;3.80;;;;;;;21.62;60.03;96063.06;10301348;28;20485;-25
2023/09/20 14:19:15;;;;;;;7.82;3.35;;;;;;;21.58;60.41;96061.47;10304737;28;20037;-26
2023/09/20 14:24:16;;;;;;;9.43;3.65;;;;;;;21.62;60.31;96052.84;10297537;28;20039;-25
2023/09/20 14:29:16;;;;;;;8.17;3.73;;;;;;;21.62;60.61;96051.16;10286708;28;20552;-25
2023/09/20 14:34:19;;;;;;;6.15;3.00;;;;;;;21.60;60.50;96041.88;10293945;28;20528;-25
2023/09/20 14:39:19;;;;;;;8.23;3.08;;;;;;;21.61;60.41;96039.31;10290199;28;20035;-25
2023/09/20 14:44:20;;;;;;;3.67;2.88;;;;;;;21.61;60.31;96029.13;10289720;28;20712;-25
2023/09/20 14:49:20;;;;;;;8.48;2.97;;;;;;;21.63;60.38;96032.47;10286990;28;20037;-25
2023/09/20 14:54:22;;;;;;;5.40;3.10;;;;;;;21.62;60.37;96020.59;10286178;28;20039;-25
2023/09/20 14:59:23;;;;;;;6.00;2.67;;;;;;;21.62;60.58;96015.50;10283981;28;20042;-25
2023/09/20 15:04:23;;;;;;;7.70;2.77;;;;;;;21.63;60.26;96022.28;10287001;28;20489;-25
2023/09/20 15:09:24;;;;;;;4.83;2.37;;;;;;;21.63;60.38;96014.63;10282066;28;20038;-25
2023/09/20 15:14:25;;;;;;;4.80;2.30;;;;;;;21.61;60.51;96005.34;10285385;28;20041;-25
2023/09/20 15:19:27;;;;;;;2.63;2.03;;;;;;;21.61;60.36;95998.53;10286454;28;20035;-26
2023/09/20 15:24:28;;;;;;;5.20;2.60;;;;;;;21.61;60.58;95998.53;10275667;28;20035;-25
2023/09/20 15:29:31;;;;;;;5.00;2.33;;;;;;;21.61;60.33;95993.44;10280963;28;20386;-26
2023/09/20 15:34:31;;;;;;;2.65;2.03;;;;;;;21.61;60.76;95985.81;10281438;28;20043;-25
2023/09/20 15:39:37;;;;;;;3.77;2.60;;;;;;;21.61;60.58;95978.16;10288761;28;20043;-26
2023/09/20 15:44:39;;;;;;;;;;;;;;;21.55;60.66;95980.03;10281688;28;20486;-25
2023/09/20 15:49:39;;;;;;;8.30;2.47;;;;;;;21.57;61.21;95968.91;10285881;28;19933;-25
2023/09/20 15:54:40;;;;;;;9.00;2.60;;;;;;;21.55;61.36;95960.47;10277806;28;20041;-25
2023/09/20 15:59:41;;;;;;;7.45;1.90;;;;;;;21.60;60.44;95960.34;10286511;28;20637;-25
2023/09/20 16:04:42;;;;;;;6.45;2.42;;;;;;;21.59;60.94;95956.16;10294265;28;20031;-26
2023/09/20 16:09:42;;;;;;;5.77;2.30;;;;;;;21.59;60.50;95944.25;10293690;28;20034;-25
2023/09/20 16:14:43;;;;;;;3.70;2.07;;;;;;;21.59;60.94;95939.16;10294968;28;20098;-26
2023/09/20 16:19:43;;;;;;;3.13;1.88;;;;;;;21.61;60.53;95937.41;10288907;28;20393;-26
2023/09/20 16:24:44;;;;;;;4.43;2.00;;;;;;;21.57;60.97;95930.69;10293149;28;20049;-25
2023/09/20 16:29:44;;;;;;;4.47;1.70;;;;;;;21.59;60.66;95936.63;10287411;28;20121;-29
2023/09/20 16:34:48;;;;;;;6.87;2.93;;;;;;;21.59;60.57;95923.88;10289038;28;20049;-25
2023/09/20 16:39:49;;;;;;;5.03;1.90;;;;;;;21.59;60.63;95916.25;10287974;28;20290;-25
2023/09/20 16:44:49;;;;;;;1.88;1.13;;;;;;;21.57;60.49;95915.41;10286856;28;20043;-25
2023/09/20 16:49:51;;;;;;;2.70;1.50;;;;;;;21.59;60.37;95916.25;10288838;28;20042;-25
2023/09/20 16:54:51;;;;;;;6.93;2.75;;;;;;;21.58;61.39;95899.28;10284609;28;20034;-24
2023/09/20 16:59:55;;;;;;;2.30;1.50;;;;;;;21.60;60.52;95915.34;10289972;28;20389;-25
2023/09/20 17:04:55;;;;;;;3.58;1.45;;;;;;;21.59;60.49;95908.59;10290086;28;20035;-25
2023/09/20 17:09:56;;;;;;;2.93;1.53;;;;;;;21.60;60.50;95906.88;10287107;28;20412;-25
2023/09/20 17:14:56;;;;;;;4.18;1.70;;;;;;;21.59;60.40;95912.84;10293134;28;20497;-25
2023/09/20 17:19:56;;;;;;;2.13;1.30;;;;;;;21.58;60.35;95904.38;10290587;28;20026;-25
2023/09/20 17:24:57;;;;;;;2.80;1.50;;;;;;;21.58;60.58;95900.97;10290784;28;20026;-25
2023/09/20 17:29:57;;;;;;;1.93;1.23;;;;;;;21.58;60.38;95912.03;10289926;28;20321;-25
2023/09/20 17:34:58;;;;;;;2.72;1.33;;;;;;;21.59;60.41;95897.56;10293837;28;20453;-25
2023/09/20 17:40:00;;;;;;;4.93;1.40;;;;;;;21.56;61.05;95906.09;10289086;28;20030;-25
2023/09/20 17:45:01;;;;;;;3.50;1.30;;;;;;;21.56;60.45;95908.66;10291596;28;20074;-26
2023/09/20 17:50:02;;;;;;;5.22;1.33;;;;;;;21.58;60.38;95917.13;10288751;28;20100;-25
2023/09/20 17:55:02;;;;;;;10.32;1.35;;;;;;;21.62;60.27;95920.41;10289624;28;20489;-25
2023/09/20 18:00:11;;;;;;;5.10;2.47;;;;;;;21.64;60.47;95927.13;10286795;28;20117;-25
2023/09/20 18:05:12;;;;;;;13.45;3.13;;;;;;;21.65;62.18;95928.84;10286993;28;20034;-25
2023/09/20 18:10:14;;;;;;;10.13;1.88;;;;;;;21.68;62.05;95933.03;10283633;28;20042;-25
2023/09/20 18:15:15;;;;;;;3.85;1.52;;;;;;;21.64;60.54;95937.31;10286685;28;20035;-25
2023/09/20 18:20:19;;;;;;;3.03;1.30;;;;;;;21.64;60.39;95941.59;10289190;28;20030;-25
2023/09/20 18:25:20;;;;;;;4.93;1.40;;;;;;;21.66;60.15;95950.88;10283816;28;20121;-25
2023/09/20 18:30:20;;;;;;;4.53;1.77;;;;;;;21.64;60.95;95944.97;10284217;28;20031;-25
2023/09/20 18:35:23;;;;;;;5.53;1.20;;;;;;;21.60;60.50;95938.28;10280330;28;20527;-25
2023/09/20 18:40:23;;;;;;;2.35;1.30;;;;;;;21.64;60.23;95947.50;10281333;28;20376;-25
2023/09/20 18:45:23;;;;;;;1.93;1.27;;;;;;;21.57;60.19;95945.16;10283124;28;20533;-25
2023/09/20 18:50:26;;;;;;;2.60;1.03;;;;;;;21.61;60.28;95954.38;10281467;28;20034;-26
2023/09/20 18:55:27;;;;;;;3.15;1.20;;;;;;;21.57;60.30;95953.63;10283596;28;20031;-25
2023/09/20 19:00:30;;;;;;;2.03;0.90;;;;;;;21.58;60.50;95954.47;10281996;28;20034;-25
2023/09/20 19:05:33;;;;;;;3.50;1.20;;;;;;;21.58;60.19;95957.88;10278725;28;20305;-25
2023/09/20 19:10:34;;;;;;;1.85;1.02;;;;;;;21.58;60.30;95952.78;10282354;28;20039;-25
2023/09/20 19:15:36;;;;;;;5.67;2.50;;;;;;;21.59;60.29;95953.59;10280099;28;20401;-25
2023/09/20 19:20:37;;;;;;;1.92;1.02;;;;;;;21.58;60.72;95957.88;10281978;28;20030;-25
2023/09/20 19:25:38;;;;;;;3.13;1.08;;;;;;;21.58;60.14;95950.22;10275546;28;20417;-26
2023/09/20 19:30:38;;;;;;;2.07;1.10;;;;;;;21.59;60.41;95944.25;10281159;28;20101;-25
2023/09/20 19:35:38;;;;;;;4.18;1.10;;;;;;;21.58;60.26;95947.69;10275635;28;20122;-25
2023/09/20 19:40:41;;;;;;;2.97;1.00;;;;;;;21.57;60.14;95948.53;10277313;28;20078;-25
2023/09/20 19:45:42;;;;;;;1.80;1.20;;;;;;;21.57;60.29;95948.53;10282566;28;20045;-25
2023/09/20 19:50:43;;;;;;;3.13;1.08;;;;;;;21.56;60.18;95951.94;10280774;28;20042;-25
2023/09/20 19:55:43;;;;;;;2.80;1.00;;;;;;;21.57;60.17;95945.97;10281962;28;20081;-25
2023/09/20 20:00:46;;;;;;;4.00;1.60;;;;;;;21.57;60.06;95958.72;10279447;28;20039;-26
2023/09/20 20:05:48;;;;;;;2.30;1.25;;;;;;;21.57;60.10;95963.00;10277689;28;20031;-24
2023/09/20 20:10:48;;;;;;;2.63;1.00;;;;;;;21.56;60.25;95962.13;10277504;28;20039;-27
2023/09/20 20:15:50;;;;;;;1.87;1.03;;;;;;;21.48;60.29;95960.66;10274981;28;20510;-25
2023/09/20 20:21:02;;;;;;;1.33;0.80;;;;;;;21.43;60.08;95954.84;10279708;28;20027;-25
2023/09/20 20:26:09;;;;;;;2.28;1.00;;;;;;;21.43;59.87;95948.03;10284783;28;20054;-25
2023/09/20 20:31:17;;;;;;;1.05;0.70;;;;;;;21.43;59.67;95939.56;10276924;28;20122;-25
2023/09/20 20:36:18;;;;;;;1.17;0.90;;;;;;;21.43;60.03;95944.66;10286166;28;20460;-25
2023/09/20 20:41:18;;;;;;;0.70;0.70;;;;;;;21.44;59.58;95939.53;10274733;28;20030;-26
2023/09/20 20:46:22;;;;;;;2.00;1.00;;;;;;;21.41;59.69;95934.50;10272326;28;20046;-27
2023/09/20 20:51:23;;;;;;;1.20;1.02;;;;;;;21.41;59.45;95928.56;10291736;28;20138;-25
2023/09/20 20:56:26;;;;;;;1.10;0.80;;;;;;;21.45;59.13;95936.09;10302140;28;20034;-25
2023/09/20 21:01:27;;;;;;;1.10;1.00;;;;;;;21.47;59.14;95931.81;10305874;28;20113;-26
2023/09/20 21:06:27;;;;;;;1.17;0.80;;;;;;;21.41;59.38;95933.66;10289756;28;20035;-25
2023/09/20 21:11:28;;;;;;;0.90;0.90;;;;;;;21.38;59.42;95924.38;10289994;28;20039;-25
2023/09/20 21:16:30;;;;;;;0.85;0.82;;;;;;;21.35;59.34;95927.00;10283822;28;20039;-25
2023/09/20 21:21:30;;;;;;;0.77;0.77;;;;;;;21.27;59.30;95911.09;10291527;28;20047;-25
2023/09/20 21:26:30;;;;;;;1.50;1.00;;;;;;;21.37;59.17;95927.81;10289862;28;20034;-24
2023/09/20 21:31:32;;;;;;;1.40;0.80;;;;;;;21.36;59.23;95913.41;10283495;28;20122;-25
2023/09/20 21:36:33;;;;;;;1.45;1.00;;;;;;;21.36;58.86;95915.09;10290407;28;20034;-26
2023/09/20 21:41:34;;;;;;;1.15;1.00;;;;;;;21.36;59.11;95915.94;10287970;28;20062;-25
2023/09/20 21:46:35;;;;;;;2.03;0.82;;;;;;;21.35;58.94;95899.00;10290286;28;20544;-24
2023/09/20 21:51:36;;;;;;;2.25;1.08;;;;;;;21.34;58.64;95902.44;10288708;28;20038;-25
2023/09/20 21:56:36;;;;;;;1.13;1.03;;;;;;;21.34;58.83;95899.88;10287095;28;20027;-24
2023/09/20 22:01:37;;;;;;;1.07;0.97;;;;;;;21.34;58.70;95891.41;10288679;28;20938;-25
2023/09/20 22:06:38;;;;;;;1.97;1.40;;;;;;;21.33;58.86;95890.56;10287433;28;20058;-24
2023/09/20 22:11:39;;;;;;;1.15;1.05;;;;;;;21.35;58.54;95886.28;10290123;28;20043;-25
2023/09/20 22:16:41;;;;;;;2.07;1.10;;;;;;;21.32;58.54;95878.69;10287572;28;20031;-25
2023/09/20 22:21:43;;;;;;;2.20;1.15;;;;;;;21.34;58.56;95876.13;10289236;28;20481;-24
2023/09/20 22:26:44;;;;;;;0.98;0.90;;;;;;;21.33;58.71;95864.25;10285650;28;20046;-25
2023/09/20 22:31:44;;;;;;;1.58;1.13;;;;;;;21.33;58.86;95866.81;10280443;28;20099;-27
2023/09/20 22:36:45;;;;;;;2.10;1.60;;;;;;;21.28;58.40;95861.84;10288262;28;20051;-25
2023/09/20 22:41:45;;;;;;;1.63;1.37;;;;;;;21.32;58.12;95862.59;10283768;28;20027;-25
2023/09/20 22:46:45;;;;;;;2.00;1.47;;;;;;;21.33;58.36;95854.94;10288138;28;20752;-25
2023/09/20 22:51:47;;;;;;;1.33;1.10;;;;;;;21.32;58.36;95847.31;10285590;28;20717;-25
2023/09/20 22:56:50;;;;;;;4.80;1.42;;;;;;;21.31;58.37;95846.47;10287476;28;20042;-25
2023/09/20 23:01:51;;;;;;;1.95;1.10;;;;;;;21.32;58.44;95842.22;10283764;28;20039;-24
2023/09/20 23:06:52;;;;;;;1.45;1.30;;;;;;;21.34;58.29;95838.78;10287440;28;20038;-25
2023/09/20 23:11:53;;;;;;;1.20;1.10;;;;;;;21.34;58.40;95830.28;10284428;28;20039;-26
2023/09/20 23:16:54;;;;;;;1.35;1.17;;;;;;;21.31;58.46;95823.56;10284850;28;20043;-26
2023/09/20 23:21:56;;;;;;;1.38;1.20;;;;;;;21.32;58.35;95812.50;10287062;28;20085;-25
2023/09/20 23:27:01;;;;;;;1.95;0.95;;;;;;;21.31;58.48;95821.00;10283697;28;20046;-25
2023/09/20 23:32:03;;;;;;;2.95;1.40;;;;;;;21.32;58.29;95812.50;10286862;28;20038;-25
2023/09/20 23:37:08;;;;;;;1.92;1.33;;;;;;;21.30;58.28;95811.69;10285958;28;20117;-25
2023/09/20 23:42:08;;;;;;;1.52;1.38;;;;;;;21.33;58.50;95810.78;10283880;28;20351;-25
2023/09/20 23:47:08;;;;;;;1.13;1.00;;;;;;;21.30;58.36;95804.06;10283527;28;20047;-25
2023/09/20 23:52:13;;;;;;;1.73;1.10;;;;;;;21.34;58.17;95809.91;10280071;28;20117;-25
2023/09/20 23:57:17;;;;;;;1.33;1.10;;;;;;;21.31;58.35;95805.72;10285806;28;20526;-25
